CYBB/YBB METAR and TAF weather

Enter ICAO airport designator
Station Type Date Time Source
CYBB METAR 2018/12/10 19:18 UTC NOAA

CYBB 101918Z 17029G37KT 3SM BLSN SCT046 BKN200 M13/M16 A2976 RMK BLSN2SC2CI1 PRESFR SLP080


Station Type Date Time Source
CYBB Decoded METAR 2018/12/10 19:18 UTC NOAA

Pelly Bay Airport, Canada (CYBB) 68-32N 089-49W
Dec 10, 2018 - 02:18 PM EST / 2018.12.10 1918 UTC
Wind: from the S (170 degrees) at 33 MPH (29 KT) gusting to 43 MPH (37 KT):0
Visibility: 3 mile(s):0
Sky conditions: mostly cloudy
Weather: blowing snow
Temperature: 8 F (-13 C)
Windchill: -16 F (-27 C):2
Dew Point: 3 F (-16 C)
Relative Humidity: 78%
Pressure (altimeter): 29.76 in. Hg (1007 hPa)
Pressure tendency: falling rapidly
ob: CYBB 101918Z 17029G37KT 3SM BLSN SCT046 BKN200 M13/M16 A2976 RMK BLSN2SC2CI1 PRESFR SLP080
cycle: 19

Station Type Date Time Source
CYBB TAF 2018/12/10 19:00 UTC NOAA

TAF CYBB 101838Z 1019/1024 17025G35KT 6SM BLSN SCT040 BKN120
TEMPO 1019/1024 3SM -SN BLSN BKN020 OVC040
BECMG 1022/1024 20030G40KT
RMK NXT FCST WILL BE ISSUED AT 111445Z


Example: see airport list